ESN weather

Easton Newnam Field
Easton, Maryland, United States

Public forecast

Using degrees Fahrenheit for public forecast. Weather courtesy of forecast.io.

Current aviation weather report (METAR) for Easton Newnam Field

Retrieved 2019/11/15 16:50 UTC (39 minutes ago):

KESN 151650Z 36005KT 10SM SKC 11/01 A3028

Closest aviation forecast (TAF) to Easton Newnam Field

Closest forecast is Dover Air Force Base, 34.3 nm (63.5 km) NE. Retrieved 2019/11/15 16:11 UTC (1 hour ago):

TAF KDOV 151600Z 1516/1622 33009KT 9999 BKN150 BKN200 QNH3019INS WND 36012KT AFT 1603 BECMG 1605/1606 02012G18KT 9999 BKN150 BKN200 QNH3027INS BECMG 1607/1608 04015G25KT 9999 BKN100 BKN150 QNH3027INS BECMG 1611/1612 04020G30KT 9999 SCT100 QNH3030INS TX12/1520Z TN01/1611Z